createdAt,value
2023-01-15T00:02:18.801Z,99313.91
2023-01-15T00:04:45.312Z,99317.72
2023-01-15T00:07:11.734Z,99315.25
2023-01-15T00:09:38.216Z,99314.75
2023-01-15T00:12:04.926Z,99322.28
2023-01-15T00:14:31.343Z,99317.63
2023-01-15T00:16:57.771Z,99307.16
2023-01-15T00:19:24.178Z,99303.03
2023-01-15T00:21:50.600Z,99299.41
2023-01-15T00:24:35.689Z,99303.25
2023-01-15T00:27:20.888Z,99300.56
2023-01-15T00:29:47.346Z,99291.22
2023-01-15T00:32:13.795Z,99294.03
2023-01-15T00:34:40.317Z,99273.72
2023-01-15T00:37:06.720Z,99270.44
2023-01-15T00:39:34.497Z,99266.00
2023-01-15T00:42:00.929Z,99267.53
2023-01-15T00:44:27.367Z,99258.66
2023-01-15T00:46:54.003Z,99264.00
2023-01-15T00:49:21.102Z,99258.41
2023-01-15T00:51:48.490Z,99268.09
2023-01-15T00:54:14.880Z,99263.66
2023-01-15T00:56:41.338Z,99249.88
2023-01-15T00:59:07.858Z,99243.28
2023-01-15T01:01:34.486Z,99257.91
2023-01-15T01:04:01.469Z,99257.56
2023-01-15T01:06:27.974Z,99251.72
2023-01-15T01:08:54.806Z,99243.34
2023-01-15T01:11:26.215Z,99232.56
2023-01-15T01:13:55.908Z,99245.84
2023-01-15T01:16:25.304Z,99255.75
2023-01-15T01:18:52.053Z,99242.75
2023-01-15T01:21:18.819Z,99256.09
2023-01-15T01:23:45.249Z,99266.91
2023-01-15T01:26:11.764Z,99270.72
2023-01-15T01:28:38.156Z,99263.00
2023-01-15T01:31:07.840Z,99251.94
2023-01-15T01:33:34.678Z,99254.84
2023-01-15T01:36:01.896Z,99251.78
2023-01-15T01:38:28.345Z,99237.34
2023-01-15T01:40:54.796Z,99228.31
2023-01-15T01:43:25.462Z,99229.06
2023-01-15T01:45:51.954Z,99239.16
2023-01-15T01:48:23.721Z,99238.84
2023-01-15T01:50:53.629Z,99246.34
2023-01-15T01:53:22.965Z,99249.94
2023-01-15T01:55:51.008Z,99246.72
2023-01-15T01:58:19.258Z,99234.94
2023-01-15T02:00:49.838Z,99241.47
2023-01-15T02:03:18.200Z,99247.66
2023-01-15T02:05:50.237Z,99243.66
2023-01-15T02:08:16.629Z,99239.06
2023-01-15T02:10:43.467Z,99230.19
2023-01-15T02:13:31.891Z,99226.47
2023-01-15T02:16:07.107Z,99237.19
2023-01-15T02:18:48.882Z,99249.91
2023-01-15T02:21:30.998Z,99251.66
2023-01-15T02:24:09.604Z,99248.28
2023-01-15T02:27:03.975Z,99252.31
2023-01-15T02:29:44.901Z,99246.91
2023-01-15T02:32:17.958Z,99235.03
2023-01-15T02:34:51.531Z,99232.50
2023-01-15T02:37:25.609Z,99237.47
2023-01-15T02:39:54.720Z,99231.78
2023-01-15T02:42:27.642Z,99229.56
2023-01-15T02:44:56.734Z,99216.88
2023-01-15T02:47:28.610Z,99225.38
2023-01-15T02:50:02.407Z,99221.38
2023-01-15T02:52:42.109Z,99226.41
2023-01-15T02:55:15.889Z,99232.50
2023-01-15T02:57:46.824Z,99234.16
2023-01-15T03:00:19.237Z,99237.44
2023-01-15T03:03:13.247Z,99232.06
2023-01-15T03:05:48.610Z,99234.09
2023-01-15T03:08:17.616Z,99231.25
2023-01-15T03:10:58.876Z,99235.34
2023-01-15T03:13:41.284Z,99221.25
2023-01-15T03:16:34.620Z,99229.63
2023-01-15T03:19:07.097Z,99228.16
2023-01-15T03:21:50.122Z,99240.81
2023-01-15T03:24:27.199Z,99240.63
2023-01-15T03:26:54.473Z,99242.78
2023-01-15T03:29:25.010Z,99230.47
2023-01-15T03:31:52.934Z,99239.56
2023-01-15T03:34:19.819Z,99235.72
2023-01-15T03:36:47.368Z,99234.91
2023-01-15T03:39:14.639Z,99228.00
2023-01-15T03:42:01.681Z,99241.91
2023-01-15T03:44:52.382Z,99227.06
2023-01-15T03:47:41.801Z,99234.78
2023-01-15T03:50:22.755Z,99255.09
2023-01-15T03:53:08.309Z,99300.97
2023-01-15T03:55:50.094Z,99303.09
2023-01-15T03:58:23.975Z,99304.34
2023-01-15T04:00:53.804Z,99309.63
2023-01-15T04:03:23.839Z,99322.44
2023-01-15T04:05:52.557Z,99337.63
2023-01-15T04:08:21.080Z,99333.56
2023-01-15T04:10:57.794Z,99354.47
2023-01-15T04:13:30.989Z,99366.91
2023-01-15T04:15:58.671Z,99368.69
2023-01-15T04:18:25.845Z,99384.75
2023-01-15T04:20:52.303Z,99388.41
2023-01-15T04:23:18.727Z,99390.50
2023-01-15T04:25:45.128Z,99393.38
2023-01-15T04:28:13.575Z,99394.38
2023-01-15T04:30:40.000Z,99393.38
2023-01-15T04:33:06.423Z,99397.16
2023-01-15T04:35:32.809Z,99395.06
2023-01-15T04:38:00.115Z,99402.56
2023-01-15T04:40:46.135Z,99403.97
2023-01-15T04:43:32.424Z,99402.44
2023-01-15T04:45:59.506Z,99404.06
2023-01-15T04:48:26.478Z,99408.81
2023-01-15T04:50:53.150Z,99411.50
2023-01-15T04:53:19.555Z,99407.34
2023-01-15T04:55:45.946Z,99399.53
2023-01-15T04:58:12.337Z,99404.16
2023-01-15T05:00:38.744Z,99414.63
2023-01-15T05:03:05.175Z,99414.75
2023-01-15T05:05:32.637Z,99402.94
2023-01-15T05:07:59.069Z,99409.44
2023-01-15T05:10:25.494Z,99414.16
2023-01-15T05:12:51.905Z,99419.44
2023-01-15T05:15:18.298Z,99410.00
2023-01-15T05:17:44.692Z,99407.50
2023-01-15T05:20:11.550Z,99403.31
2023-01-15T05:22:37.979Z,99405.78
2023-01-15T05:25:04.656Z,99394.91
2023-01-15T05:27:31.182Z,99395.97
2023-01-15T05:29:57.578Z,99399.88
2023-01-15T05:32:24.022Z,99399.53
2023-01-15T05:34:50.426Z,99396.81
2023-01-15T05:37:16.835Z,99411.19
2023-01-15T05:39:43.219Z,99406.13
2023-01-15T05:42:09.689Z,99402.38
2023-01-15T05:44:36.080Z,99402.22
2023-01-15T05:47:05.731Z,99384.16
2023-01-15T05:49:32.246Z,99393.06
2023-01-15T05:52:00.592Z,99379.78
2023-01-15T05:54:29.711Z,99374.59
2023-01-15T05:56:56.391Z,99374.88
2023-01-15T05:59:25.438Z,99373.19
2023-01-15T06:01:52.702Z,99382.06
2023-01-15T06:04:21.338Z,99381.56
2023-01-15T06:06:49.533Z,99378.75
2023-01-15T06:09:16.146Z,99361.00
2023-01-15T06:11:42.579Z,99359.41
2023-01-15T06:14:11.587Z,99363.16
2023-01-15T06:16:41.012Z,99360.69
2023-01-15T06:19:09.259Z,99370.69
2023-01-15T06:21:36.324Z,99376.47
2023-01-15T06:24:03.272Z,99377.19
2023-01-15T06:26:30.532Z,99377.88
2023-01-15T06:28:57.261Z,99386.22
2023-01-15T06:31:24.435Z,99386.53
2023-01-15T06:33:51.127Z,99391.72
2023-01-15T06:36:23.131Z,99399.06
2023-01-15T06:38:49.935Z,99394.22
2023-01-15T06:41:37.551Z,99391.19
2023-01-15T06:44:22.816Z,99407.97
2023-01-15T06:47:09.470Z,99392.00
2023-01-15T06:49:37.322Z,99399.66
2023-01-15T06:52:04.380Z,99405.78
2023-01-15T06:54:31.411Z,99411.00
2023-01-15T06:56:57.830Z,99402.94
2023-01-15T06:59:24.316Z,99399.06
2023-01-15T07:01:50.764Z,99418.03
2023-01-15T07:04:17.236Z,99417.25
2023-01-15T07:06:43.739Z,99415.66
2023-01-15T07:09:10.125Z,99414.75
2023-01-15T07:11:49.139Z,99417.19
2023-01-15T07:14:27.996Z,99413.09
2023-01-15T07:16:54.429Z,99415.81
2023-01-15T07:19:20.847Z,99411.00
2023-01-15T07:21:47.785Z,99407.19
2023-01-15T07:24:17.258Z,99407.84
2023-01-15T07:26:43.846Z,99422.72
2023-01-15T07:29:10.352Z,99427.75
2023-01-15T07:31:36.985Z,99429.25
2023-01-15T07:34:04.448Z,99432.72
2023-01-15T07:36:30.879Z,99446.38
2023-01-15T07:38:57.331Z,99440.06
2023-01-15T07:41:42.519Z,99430.84
2023-01-15T07:44:30.644Z,99441.94
2023-01-15T07:47:15.751Z,99441.63
2023-01-15T07:49:46.114Z,99454.22
2023-01-15T07:52:19.966Z,99446.38
2023-01-15T07:54:48.337Z,99455.56
2023-01-15T07:57:18.058Z,99447.69
2023-01-15T07:59:44.767Z,99453.06
2023-01-15T08:02:12.048Z,99469.69
2023-01-15T08:04:38.611Z,99461.38
2023-01-15T08:07:05.744Z,99461.88
2023-01-15T08:09:32.386Z,99451.34
2023-01-15T08:12:18.856Z,99438.59
2023-01-15T08:15:04.515Z,99426.59
2023-01-15T08:17:33.762Z,99436.88
2023-01-15T08:20:00.322Z,99428.25
2023-01-15T08:22:26.710Z,99426.97
2023-01-15T08:24:53.167Z,99428.91
2023-01-15T08:27:19.590Z,99446.28
2023-01-15T08:29:46.080Z,99440.44
2023-01-15T08:32:12.538Z,99441.28
2023-01-15T08:34:39.380Z,99446.13
2023-01-15T08:37:06.019Z,99448.53
2023-01-15T08:39:32.448Z,99451.38
2023-01-15T08:41:58.858Z,99452.53
2023-01-15T08:44:25.420Z,99453.81
2023-01-15T08:46:53.233Z,99451.88
2023-01-15T08:49:20.954Z,99447.38
2023-01-15T08:51:51.568Z,99449.63
2023-01-15T08:54:20.230Z,99438.28
2023-01-15T08:56:47.089Z,99462.28
2023-01-15T08:59:14.045Z,99470.38
2023-01-15T09:01:41.383Z,99475.91
2023-01-15T09:04:09.323Z,99475.09
2023-01-15T09:06:35.723Z,99485.66
2023-01-15T09:09:02.176Z,99476.78
2023-01-15T09:11:28.782Z,99473.84
2023-01-15T09:13:58.005Z,99476.34
2023-01-15T09:16:26.647Z,99480.38
2023-01-15T09:18:53.664Z,99479.50
2023-01-15T09:21:20.681Z,99476.81
2023-01-15T09:23:47.107Z,99490.88
2023-01-15T09:26:46.211Z,99482.50
2023-01-15T09:29:12.613Z,99497.03
2023-01-15T09:31:39.046Z,99490.47
2023-01-15T09:34:05.469Z,99491.09
2023-01-15T09:36:34.289Z,99489.16
2023-01-15T09:39:02.388Z,99499.22
2023-01-15T09:42:10.356Z,99492.75
2023-01-15T09:44:55.304Z,99491.66
2023-01-15T09:47:35.095Z,99498.31
2023-01-15T09:50:34.668Z,99493.50
2023-01-15T09:53:25.849Z,99499.53
2023-01-15T09:55:52.661Z,99493.94
2023-01-15T09:58:23.364Z,99502.03
2023-01-15T10:00:52.005Z,99488.38
2023-01-15T10:03:31.317Z,99487.69
2023-01-15T10:06:15.738Z,99477.63
2023-01-15T10:08:47.626Z,99472.00
2023-01-15T10:11:20.125Z,99493.31
2023-01-15T10:13:56.736Z,99482.66
2023-01-15T10:16:26.365Z,99494.88
2023-01-15T10:18:53.747Z,99487.13
2023-01-15T10:21:51.721Z,99478.19
2023-01-15T10:24:24.385Z,99478.91
2023-01-15T10:26:56.225Z,99466.75
2023-01-15T10:30:04.272Z,99470.81
2023-01-15T10:33:01.168Z,99472.44
2023-01-15T10:35:54.300Z,99473.53
2023-01-15T10:38:49.787Z,99473.16
2023-01-15T10:41:27.896Z,99477.59
2023-01-15T10:44:16.813Z,99478.50
2023-01-15T10:46:49.905Z,99484.56
2023-01-15T10:49:18.612Z,99478.50
2023-01-15T10:51:46.259Z,99474.31
2023-01-15T10:54:34.122Z,99472.06
2023-01-15T10:57:27.523Z,99479.38
2023-01-15T10:59:58.636Z,99483.94
2023-01-15T11:02:28.300Z,99485.88
2023-01-15T11:04:54.955Z,99488.19
2023-01-15T11:07:29.522Z,99492.69
2023-01-15T11:10:05.071Z,99495.88
2023-01-15T11:12:49.865Z,99489.72
2023-01-15T11:15:42.031Z,99495.81
2023-01-15T11:18:34.521Z,99492.69
2023-01-15T11:21:02.541Z,99487.00
2023-01-15T11:23:36.214Z,99482.19
2023-01-15T11:26:03.602Z,99484.97
2023-01-15T11:28:43.211Z,99484.97
2023-01-15T11:31:11.562Z,99494.63
2023-01-15T11:33:38.651Z,99486.72
2023-01-15T11:36:07.703Z,99476.47
2023-01-15T11:38:44.411Z,99485.03
2023-01-15T11:41:22.857Z,99474.94
2023-01-15T11:44:16.197Z,99485.88
2023-01-15T11:47:04.284Z,99479.09
2023-01-15T11:49:49.233Z,99478.91
2023-01-15T11:52:24.517Z,99482.78
2023-01-15T11:54:55.297Z,99489.13
2023-01-15T11:57:31.398Z,99484.34
2023-01-15T11:59:58.334Z,99477.50
2023-01-15T12:02:48.053Z,99473.56
2023-01-15T12:05:31.017Z,99472.63
2023-01-15T12:08:01.898Z,99471.78
2023-01-15T12:10:57.809Z,99479.63
2023-01-15T12:13:41.077Z,99476.94
2023-01-15T12:16:21.482Z,99478.00
2023-01-15T12:18:57.412Z,99478.19
2023-01-15T12:21:47.621Z,99482.31
2023-01-15T12:24:56.546Z,99477.47
2023-01-15T12:28:03.045Z,99483.34
2023-01-15T12:30:34.170Z,99461.97
2023-01-15T12:33:04.283Z,99472.03
2023-01-15T12:35:41.042Z,99464.69
2023-01-15T12:38:45.258Z,99463.81
2023-01-15T12:41:15.855Z,99454.38
2023-01-15T12:44:07.539Z,99453.78
2023-01-15T12:46:37.456Z,99457.22
2023-01-15T12:49:19.659Z,99470.47
2023-01-15T12:52:04.203Z,99462.06
2023-01-15T12:54:48.474Z,99458.84
2023-01-15T12:57:30.750Z,99451.91
2023-01-15T13:00:03.857Z,99451.00
2023-01-15T13:02:40.658Z,99458.22
2023-01-15T13:05:30.092Z,99455.72
2023-01-15T13:08:05.023Z,99454.09
2023-01-15T13:10:35.305Z,99460.34
2023-01-15T13:13:16.559Z,99449.50
2023-01-15T13:15:58.082Z,99447.03
2023-01-15T13:18:34.526Z,99442.50
2023-01-15T13:21:10.485Z,99443.50
2023-01-15T13:24:01.776Z,99448.25
2023-01-15T13:26:33.880Z,99461.78
2023-01-15T13:29:25.527Z,99450.59
2023-01-15T13:31:54.652Z,99447.13
2023-01-15T13:34:27.332Z,99449.06
2023-01-15T13:36:57.988Z,99449.28
2023-01-15T13:39:32.745Z,99439.03
2023-01-15T13:42:18.688Z,99442.63
2023-01-15T13:44:49.332Z,99441.94
2023-01-15T13:47:28.272Z,99442.63
2023-01-15T13:50:06.511Z,99446.34
2023-01-15T13:52:35.346Z,99458.63
2023-01-15T13:55:26.346Z,99456.09
2023-01-15T13:57:52.736Z,99464.28
2023-01-15T14:00:38.720Z,99459.66
2023-01-15T14:03:25.162Z,99457.38
2023-01-15T14:06:10.322Z,99476.63
2023-01-15T14:08:46.198Z,99474.44
2023-01-15T14:11:34.640Z,99494.53
2023-01-15T14:14:28.613Z,99485.34
2023-01-15T14:17:13.799Z,99493.13
2023-01-15T14:19:57.103Z,99499.78
2023-01-15T14:22:29.686Z,99501.34
2023-01-15T14:25:21.235Z,99522.63
2023-01-15T14:28:05.795Z,99508.13
2023-01-15T14:30:42.547Z,99517.38
2023-01-15T14:33:42.285Z,99527.19
2023-01-15T14:36:19.351Z,99535.50
2023-01-15T14:38:54.976Z,99533.25
2023-01-15T14:41:30.814Z,99545.53
2023-01-15T14:44:00.560Z,99554.31
2023-01-15T14:46:35.161Z,99556.81
2023-01-15T14:49:02.361Z,99567.34
2023-01-15T14:51:32.592Z,99563.75
2023-01-15T14:54:03.173Z,99575.72
2023-01-15T14:56:34.962Z,99561.13
2023-01-15T14:59:18.418Z,99564.25
2023-01-15T15:01:47.927Z,99561.66
2023-01-15T15:04:39.054Z,99556.88
2023-01-15T15:07:13.603Z,99557.16
2023-01-15T15:09:47.444Z,99552.59
2023-01-15T15:12:35.440Z,99556.16
2023-01-15T15:15:16.912Z,99563.13
2023-01-15T15:18:14.103Z,99570.13
2023-01-15T15:21:01.797Z,99564.84
2023-01-15T15:23:40.139Z,99583.22
2023-01-15T15:26:20.778Z,99576.00
2023-01-15T15:29:00.357Z,99569.34
2023-01-15T15:31:28.453Z,99564.09
2023-01-15T15:33:56.637Z,99569.63
2023-01-15T15:36:25.915Z,99565.78
2023-01-15T15:38:53.692Z,99568.53
2023-01-15T15:41:42.410Z,99569.94
2023-01-15T15:44:37.139Z,99563.31
2023-01-15T15:47:37.779Z,99551.72
2023-01-15T15:50:04.837Z,99561.44
2023-01-15T15:52:33.329Z,99570.06
2023-01-15T15:55:06.028Z,99571.47
2023-01-15T15:57:34.874Z,99567.88
2023-01-15T16:00:01.780Z,99572.38
2023-01-15T16:02:36.238Z,99572.09
2023-01-15T16:05:19.308Z,99573.44
2023-01-15T16:07:46.377Z,99568.72
2023-01-15T16:10:26.660Z,99561.63
2023-01-15T16:12:56.205Z,99556.59
2023-01-15T16:15:29.444Z,99563.44
2023-01-15T16:17:57.512Z,99564.66
2023-01-15T16:20:24.978Z,99556.66
2023-01-15T16:23:00.207Z,99560.00
2023-01-15T16:25:36.933Z,99563.25
2023-01-15T16:28:04.438Z,99565.28
2023-01-15T16:30:32.508Z,99574.50
2023-01-15T16:33:18.982Z,99565.00
2023-01-15T16:35:45.392Z,99563.09
2023-01-15T16:38:19.949Z,99567.34
2023-01-15T16:40:46.885Z,99559.59
2023-01-15T16:43:23.625Z,99568.72
2023-01-15T16:45:58.828Z,99562.84
2023-01-15T16:48:46.021Z,99571.75
2023-01-15T16:51:32.243Z,99575.91
2023-01-15T16:54:02.021Z,99563.69
2023-01-15T16:56:37.707Z,99563.97
2023-01-15T16:59:44.992Z,99565.88
2023-01-15T17:02:16.445Z,99551.50
2023-01-15T17:04:44.995Z,99557.59
2023-01-15T17:07:27.791Z,99550.94
2023-01-15T17:09:57.656Z,99559.00
2023-01-15T17:12:37.553Z,99560.09
2023-01-15T17:15:30.338Z,99565.16
2023-01-15T17:17:56.738Z,99551.53
2023-01-15T17:20:27.946Z,99561.28
2023-01-15T17:22:54.918Z,99557.09
2023-01-15T17:25:33.290Z,99550.44
2023-01-15T17:28:01.688Z,99559.81
2023-01-15T17:30:31.239Z,99557.66
2023-01-15T17:33:02.071Z,99565.41
2023-01-15T17:35:31.393Z,99558.72
2023-01-15T17:37:57.945Z,99547.13
2023-01-15T17:40:24.773Z,99556.84
2023-01-15T17:42:51.286Z,99553.75
2023-01-15T17:45:26.244Z,99556.50
2023-01-15T17:47:53.167Z,99552.88
2023-01-15T17:50:19.727Z,99557.06
2023-01-15T17:52:46.940Z,99561.22
2023-01-15T17:55:34.807Z,99562.91
2023-01-15T17:58:20.178Z,99549.28
2023-01-15T18:01:06.895Z,99553.16
2023-01-15T18:03:53.613Z,99561.50
2023-01-15T18:06:21.559Z,99568.97
2023-01-15T18:08:53.686Z,99561.81
2023-01-15T18:11:20.071Z,99558.72
2023-01-15T18:13:46.498Z,99561.47
2023-01-15T18:16:13.332Z,99565.66
2023-01-15T18:18:39.808Z,99575.91
2023-01-15T18:21:06.413Z,99580.38
2023-01-15T18:23:39.353Z,99584.56
2023-01-15T18:26:07.411Z,99587.84
2023-01-15T18:28:38.486Z,99579.50
2023-01-15T18:31:05.242Z,99580.38
2023-01-15T18:33:31.835Z,99582.03
2023-01-15T18:36:06.283Z,99590.34
2023-01-15T18:38:35.366Z,99587.56
2023-01-15T18:41:33.473Z,99597.59
2023-01-15T18:44:19.965Z,99597.56
2023-01-15T18:46:49.882Z,99578.69
2023-01-15T18:49:16.383Z,99580.91
2023-01-15T18:51:42.780Z,99586.75
2023-01-15T18:54:10.192Z,99595.09
2023-01-15T18:56:40.123Z,99594.53
2023-01-15T18:59:11.477Z,99595.34
2023-01-15T19:01:39.013Z,99586.44
2023-01-15T19:04:06.886Z,99603.13
2023-01-15T19:06:34.462Z,99585.88
2023-01-15T19:09:01.336Z,99593.34
2023-01-15T19:11:28.703Z,99589.47
2023-01-15T19:14:13.870Z,99591.44
2023-01-15T19:16:59.801Z,99594.75
2023-01-15T19:19:26.384Z,99587.25
2023-01-15T19:22:12.784Z,99588.38
2023-01-15T19:24:39.777Z,99592.53
2023-01-15T19:27:07.309Z,99594.22
2023-01-15T19:29:33.716Z,99597.00
2023-01-15T19:32:00.414Z,99599.19
2023-01-15T19:34:34.566Z,99597.75
2023-01-15T19:37:01.159Z,99596.13
2023-01-15T19:39:28.840Z,99599.97
2023-01-15T19:42:14.854Z,99596.41
2023-01-15T19:45:00.145Z,99598.06
2023-01-15T19:47:49.966Z,99590.84
2023-01-15T19:50:20.225Z,99603.34
2023-01-15T19:52:55.488Z,99593.59
2023-01-15T19:55:23.998Z,99591.97
2023-01-15T19:57:57.303Z,99599.19
2023-01-15T20:00:24.119Z,99599.19
2023-01-15T20:02:50.539Z,99589.75
2023-01-15T20:05:17.337Z,99603.88
2023-01-15T20:07:43.835Z,99603.91
2023-01-15T20:10:13.398Z,99603.91
2023-01-15T20:12:58.986Z,99604.16
2023-01-15T20:15:26.225Z,99607.22
2023-01-15T20:17:52.640Z,99605.28
2023-01-15T20:20:19.520Z,99602.25
2023-01-15T20:22:46.057Z,99605.84
2023-01-15T20:25:12.703Z,99608.53
2023-01-15T20:27:40.300Z,99608.88
2023-01-15T20:30:11.368Z,99604.66
2023-01-15T20:32:38.077Z,99604.72
2023-01-15T20:35:06.720Z,99614.97
2023-01-15T20:37:33.418Z,99612.44
2023-01-15T20:39:59.817Z,99610.47
2023-01-15T20:42:46.372Z,99611.63
2023-01-15T20:45:15.213Z,99613.03
2023-01-15T20:48:01.452Z,99619.63
2023-01-15T20:50:30.146Z,99620.25
2023-01-15T20:52:58.565Z,99621.91
2023-01-15T20:55:54.919Z,99619.72
2023-01-15T20:58:24.602Z,99621.63
2023-01-15T21:00:51.223Z,99620.81
2023-01-15T21:03:18.077Z,99622.22
2023-01-15T21:05:44.920Z,99622.78
2023-01-15T21:08:11.520Z,99616.13
2023-01-15T21:10:39.266Z,99619.81
2023-01-15T21:13:05.654Z,99615.84
2023-01-15T21:15:32.055Z,99608.63
2023-01-15T21:17:58.486Z,99611.66
2023-01-15T21:20:24.886Z,99617.22
2023-01-15T21:22:51.402Z,99624.41
2023-01-15T21:25:17.817Z,99616.38
2023-01-15T21:27:44.374Z,99610.25
2023-01-15T21:30:11.309Z,99623.34
2023-01-15T21:32:37.786Z,99615.25
2023-01-15T21:35:04.465Z,99619.41
2023-01-15T21:37:30.991Z,99626.09
2023-01-15T21:39:57.422Z,99618.63
2023-01-15T21:42:42.180Z,99623.38
2023-01-15T21:45:10.322Z,99625.06
2023-01-15T21:47:37.598Z,99624.75
2023-01-15T21:50:05.537Z,99632.50
2023-01-15T21:52:33.545Z,99628.34
2023-01-15T21:55:00.165Z,99632.28
2023-01-15T21:57:28.892Z,99629.16
2023-01-15T21:59:55.318Z,99623.69
2023-01-15T22:02:23.242Z,99627.56
2023-01-15T22:04:50.402Z,99627.28
2023-01-15T22:07:18.472Z,99620.59
2023-01-15T22:09:45.138Z,99625.94
2023-01-15T22:12:12.734Z,99624.56
2023-01-15T22:14:39.199Z,99619.25
2023-01-15T22:17:05.749Z,99619.75
2023-01-15T22:19:32.944Z,99626.78
2023-01-15T22:22:04.991Z,99633.75
2023-01-15T22:24:32.941Z,99623.75
2023-01-15T22:27:00.608Z,99621.19
2023-01-15T22:29:31.386Z,99614.34
2023-01-15T22:31:58.743Z,99603.47
2023-01-15T22:34:27.353Z,99600.97
2023-01-15T22:36:54.459Z,99621.56
2023-01-15T22:39:21.695Z,99611.00
2023-01-15T22:42:06.685Z,99612.41
2023-01-15T22:44:33.960Z,99626.59
2023-01-15T22:47:01.086Z,99615.75
2023-01-15T22:49:27.801Z,99614.09
2023-01-15T22:51:54.727Z,99613.47
2023-01-15T22:54:21.149Z,99619.34
2023-01-15T22:56:47.637Z,99621.84
2023-01-15T22:59:15.838Z,99620.47
2023-01-15T23:01:42.504Z,99625.75
2023-01-15T23:04:17.084Z,99624.34
2023-01-15T23:06:43.981Z,99620.50
2023-01-15T23:09:11.090Z,99629.66
2023-01-15T23:11:38.071Z,99624.13
2023-01-15T23:14:05.953Z,99633.84
2023-01-15T23:16:32.361Z,99628.03
2023-01-15T23:18:58.932Z,99622.22
2023-01-15T23:21:25.983Z,99622.47
2023-01-15T23:23:57.372Z,99618.06
2023-01-15T23:26:25.371Z,99622.72
2023-01-15T23:28:52.253Z,99613.88
2023-01-15T23:31:20.350Z,99624.44
2023-01-15T23:33:47.438Z,99607.19
2023-01-15T23:36:13.904Z,99611.06
2023-01-15T23:38:41.919Z,99613.06
2023-01-15T23:41:18.453Z,99607.50
2023-01-15T23:44:04.033Z,99614.97
2023-01-15T23:46:35.253Z,99613.31
2023-01-15T23:49:07.756Z,99620.53
2023-01-15T23:51:34.945Z,99611.66
2023-01-15T23:54:02.217Z,99609.44
2023-01-15T23:56:29.867Z,99613.34
2023-01-15T23:58:56.929Z,99610.00
